• Join FlightAware (Why Join?)
  • Login
  • US Flag 
03:06PM EDT


 

Airport Tracker/Info


-or-


 

Live Flight TrackerFlight Track Log ✈ ASQ4577 ✈ 23-May-2013 ✈ KCLE - KALB

Flight Track Log - Related Links

Times and Time Zones

All times are in EDT time to prevent confusion due to time zone crossing. See the ASQ4577 flight status page for this flight to view local times or setup timezone preferences in your user account.

Time Position Orientation Groundspeed Altitude Reporting Facility
EDT Latitude Longitude Course Direction KTS MPH feet Rate Location/Type
08:35PM 41.8500 -81.2626 90° East  Level FlightAware Approximate
08:36PM 41.8799 -81.1208 73° East  Level FlightAware Approximate
08:37PM 41.9047 -80.9774 84° East  Level FlightAware Approximate
08:38PM 41.9174 -80.8305 71° East  Level FlightAware Approximate
08:39PM 41.9489 -80.6888 75° East  Level FlightAware Approximate
08:40PM 41.9667 -80.5439 90° East  Level FlightAware Approximate
08:41PM 41.9824 -80.3980 78° East  Level FlightAware Approximate
08:42PM 42.0167 -80.2748 90° East  Level FlightAware Approximate
08:43PM 42.0300 -80.1284 78° East  Level FlightAware Approximate
08:44PM 42.0518 -79.9831 79° East  Level FlightAware Approximate
08:45PM 42.0742 -79.8380 77° East  Level FlightAware Approximate
08:46PM 42.0973 -79.6929 78° East  Level FlightAware Approximate
08:47PM 42.1195 -79.5476 79° East  Level FlightAware Approximate
08:48PM 42.1413 -79.4021 79° East  Level FlightAware Approximate
08:49PM 42.1628 -79.2565 79° East  Level FlightAware Approximate
08:50PM 42.1839 -79.1107 82° East  Level FlightAware Approximate
08:51PM 42.1988 -78.9635 82° East  Level FlightAware Approximate
08:52PM 42.2134 -78.8162 82° East  Level FlightAware Approximate
08:53PM 42.2319 -78.6697 80° East  Level FlightAware Approximate
08:54PM 42.2514 -78.5234 79° East  Level FlightAware Approximate
08:55PM 42.2724 -78.3773 79° East  Level FlightAware Approximate
08:56PM 42.2904 -78.2306 82° East  Level FlightAware Approximate
08:57PM 42.3053 -78.0831 82° East  Level FlightAware Approximate
08:58PM 42.3200 -77.9356 82° East  Level FlightAware Approximate
08:59PM 42.3347 -77.7881 81° East  Level FlightAware Approximate
09:00PM 42.3519 -77.6409 81° East  Level FlightAware Approximate
09:01PM 42.3689 -77.4937 81° East  Level FlightAware Approximate
09:02PM 42.3862 -77.3466 79° East  Level FlightAware Approximate
09:03PM 42.4072 -77.2003 79° East  Level FlightAware Approximate
09:04PM 42.4281 -77.0539 79° East  Level FlightAware Approximate
09:05PM 42.4467 -76.9069 81° East  Level FlightAware Approximate
09:06PM 42.4644 -76.7596 81° East  Level FlightAware Approximate
09:07PM 42.4819 -76.6123 81° East  Level FlightAware Approximate
09:08PM 42.4866 -76.4637 77° East  Level FlightAware Approximate
09:09PM 42.5000 -76.3164 90° East  Level FlightAware Approximate
09:10PM 42.5259 -76.1748 82° East  Level FlightAware Approximate
09:11PM 42.5415 -76.0269 81° East  Level FlightAware Approximate
09:12PM 42.5500 -75.8784 90° East  Level FlightAware Approximate
09:13PM 42.5667 -75.7320 90° East  Level FlightAware Approximate
09:14PM 42.5778 -75.5833 83° East  Level FlightAware Approximate
09:15PM 42.5935 -75.4354 80° East  Level FlightAware Approximate
09:16PM 42.6095 -75.2875 82° East  Level FlightAware Approximate
09:17PM 42.6239 -75.1392 82° East  Level FlightAware Approximate
09:18PM 42.6382 -74.9908 82° East  Level FlightAware Approximate
09:19PM 42.6534 -74.8426 79° East  Level FlightAware Approximate
09:20PM 42.6667 -74.6947 90° East  Level FlightAware Approximate
09:21PM 42.6835 -74.5480 83° East  Level FlightAware Approximate
09:22PM 42.6959 -74.3992 83° East  Level FlightAware Approximate
09:23PM 42.7091 -74.2505 83° East  Level FlightAware Approximate
09:24PM 42.7167 -74.1013 90° East  Level FlightAware Approximate
09:25PM 42.7235 -73.9523 79° East  Level FlightAware Approximate
09:26PM 42.7333 -73.8038 90° East  Level FlightAware Approximate
09:27PM 42.7333 -73.8000 90° East  Level FlightAware Approximate
09:28PM 42.7491 -73.8020 90° East  Level Estimated
09:29PM 42.7491 -73.8020 90° East  Level Estimated
09:30PM 42.7491 -73.8020 90° East  Level Estimated
09:31PM 42.7491 -73.8020 90° East  Level Estimated
09:32PM 42.7491 -73.8020 90° East  Level Estimated